Decoded Metar for CYIN ( in ) (IATA:) | Meteo·Mobile Aviation Weather
aviador You're here:

CYIN Decoded Metar

in
Report Time2018-12-14 13:00:00
UTC Time2018-12-14 13:19:05
Flight Rules vfr VFR
Wind170° at 21 Gusting to 40 kt
W.Decomp.*RWY 11: 10.5 kt HW 18.2 kt RCW
W.Rank170° ranks 13
Current wind is above 170° avg. (6.8)
Visibility9999 m
Phenomena:N/A
Clouds:Scattered 220 Hf
Expected CloudBase > 3,200 ft AGL from Temp-Dew spread
CeilingNone
Temp06°C
Dew Point-2°C (57% RH)
AAT-3.8°C
QNH996 hPa
Raw Report
METAR CYIN 141300Z AUTO 17021G40KT 9SM SCT220 06/M02 A2940 RMK PRESRR SLP973 DENSITY ALT 4000FT=

Extra information for CYIN:More info

Social comments